sensor_id;sensor_type;location;lat;lon;timestamp;P1;durP1;ratioP1;P2;durP2;ratioP2
43504;SDS011;29098;48.184;16.298;2024-01-10T00:01:23;51.17;;;26.25;;
43504;SDS011;29098;48.184;16.298;2024-01-10T00:03:52;66.35;;;24.58;;
43504;SDS011;29098;48.184;16.298;2024-01-10T00:06:19;50.40;;;24.60;;
43504;SDS011;29098;48.184;16.298;2024-01-10T00:08:44;58.22;;;26.17;;
43504;SDS011;29098;48.184;16.298;2024-01-10T00:11:10;50.47;;;24.35;;
43504;SDS011;29098;48.184;16.298;2024-01-10T00:13:36;55.80;;;25.80;;
43504;SDS011;29098;48.184;16.298;2024-01-10T00:16:02;54.08;;;26.55;;
43504;SDS011;29098;48.184;16.298;2024-01-10T00:18:28;54.72;;;23.40;;
43504;SDS011;29098;48.184;16.298;2024-01-10T00:20:54;48.17;;;24.42;;
43504;SDS011;29098;48.184;16.298;2024-01-10T00:23:20;55.40;;;25.88;;
43504;SDS011;29098;48.184;16.298;2024-01-10T00:25:47;48.00;;;25.55;;
43504;SDS011;29098;48.184;16.298;2024-01-10T00:28:13;53.75;;;25.17;;
43504;SDS011;29098;48.184;16.298;2024-01-10T00:30:39;51.47;;;23.20;;
43504;SDS011;29098;48.184;16.298;2024-01-10T00:33:05;51.65;;;24.75;;
43504;SDS011;29098;48.184;16.298;2024-01-10T00:35:31;59.25;;;24.40;;
43504;SDS011;29098;48.184;16.298;2024-01-10T00:37:57;62.40;;;26.25;;
43504;SDS011;29098;48.184;16.298;2024-01-10T00:40:22;62.63;;;25.50;;
43504;SDS011;29098;48.184;16.298;2024-01-10T00:42:49;52.10;;;25.92;;
43504;SDS011;29098;48.184;16.298;2024-01-10T00:45:15;53.72;;;26.17;;
43504;SDS011;29098;48.184;16.298;2024-01-10T00:47:41;49.58;;;25.67;;
43504;SDS011;29098;48.184;16.298;2024-01-10T00:50:07;47.38;;;24.75;;
43504;SDS011;29098;48.184;16.298;2024-01-10T00:52:33;52.88;;;26.13;;
43504;SDS011;29098;48.184;16.298;2024-01-10T00:54:58;71.93;;;27.05;;
43504;SDS011;29098;48.184;16.298;2024-01-10T00:57:24;51.70;;;23.15;;
43504;SDS011;29098;48.184;16.298;2024-01-10T00:59:50;50.55;;;24.83;;
43504;SDS011;29098;48.184;16.298;2024-01-10T01:02:16;56.72;;;26.88;;
43504;SDS011;29098;48.184;16.298;2024-01-10T01:04:42;58.85;;;24.33;;
43504;SDS011;29098;48.184;16.298;2024-01-10T01:07:07;59.47;;;26.30;;
43504;SDS011;29098;48.184;16.298;2024-01-10T01:09:33;61.30;;;24.80;;
43504;SDS011;29098;48.184;16.298;2024-01-10T01:11:59;52.53;;;26.50;;
43504;SDS011;29098;48.184;16.298;2024-01-10T01:14:25;59.20;;;29.05;;
43504;SDS011;29098;48.184;16.298;2024-01-10T01:16:51;56.50;;;24.70;;
43504;SDS011;29098;48.184;16.298;2024-01-10T01:19:17;54.17;;;24.02;;
43504;SDS011;29098;48.184;16.298;2024-01-10T01:21:42;55.90;;;26.65;;
43504;SDS011;29098;48.184;16.298;2024-01-10T01:24:08;58.65;;;23.23;;
43504;SDS011;29098;48.184;16.298;2024-01-10T01:26:34;52.33;;;25.48;;
43504;SDS011;29098;48.184;16.298;2024-01-10T01:29:00;54.42;;;25.15;;
43504;SDS011;29098;48.184;16.298;2024-01-10T01:31:25;57.63;;;25.98;;
43504;SDS011;29098;48.184;16.298;2024-01-10T01:33:51;56.42;;;26.02;;
43504;SDS011;29098;48.184;16.298;2024-01-10T01:36:17;66.80;;;28.33;;
43504;SDS011;29098;48.184;16.298;2024-01-10T01:38:43;63.40;;;26.42;;
43504;SDS011;29098;48.184;16.298;2024-01-10T01:41:09;55.42;;;25.38;;
43504;SDS011;29098;48.184;16.298;2024-01-10T01:43:35;55.78;;;25.35;;
43504;SDS011;29098;48.184;16.298;2024-01-10T01:46:01;62.70;;;27.10;;
43504;SDS011;29098;48.184;16.298;2024-01-10T01:48:28;63.95;;;26.00;;
43504;SDS011;29098;48.184;16.298;2024-01-10T01:50:56;59.47;;;27.80;;
43504;SDS011;29098;48.184;16.298;2024-01-10T01:53:23;58.10;;;24.88;;
43504;SDS011;29098;48.184;16.298;2024-01-10T01:55:49;51.97;;;24.52;;
43504;SDS011;29098;48.184;16.298;2024-01-10T01:58:15;50.70;;;24.05;;
43504;SDS011;29098;48.184;16.298;2024-01-10T02:00:41;61.17;;;26.98;;
43504;SDS011;29098;48.184;16.298;2024-01-10T02:03:08;55.22;;;24.80;;
43504;SDS011;29098;48.184;16.298;2024-01-10T02:05:35;61.22;;;27.10;;
43504;SDS011;29098;48.184;16.298;2024-01-10T02:08:01;59.67;;;26.33;;
43504;SDS011;29098;48.184;16.298;2024-01-10T02:10:26;63.75;;;26.33;;
43504;SDS011;29098;48.184;16.298;2024-01-10T02:12:52;61.78;;;27.63;;
43504;SDS011;29098;48.184;16.298;2024-01-10T02:15:18;69.18;;;26.75;;
43504;SDS011;29098;48.184;16.298;2024-01-10T02:17:44;52.47;;;24.88;;
43504;SDS011;29098;48.184;16.298;2024-01-10T02:20:13;57.78;;;25.17;;
43504;SDS011;29098;48.184;16.298;2024-01-10T02:22:42;54.97;;;24.52;;
43504;SDS011;29098;48.184;16.298;2024-01-10T02:25:09;60.88;;;25.13;;
43504;SDS011;29098;48.184;16.298;2024-01-10T02:27:35;59.53;;;25.05;;
43504;SDS011;29098;48.184;16.298;2024-01-10T02:30:04;56.70;;;23.88;;
43504;SDS011;29098;48.184;16.298;2024-01-10T02:32:31;62.88;;;25.83;;
43504;SDS011;29098;48.184;16.298;2024-01-10T02:34:58;55.65;;;24.60;;
43504;SDS011;29098;48.184;16.298;2024-01-10T02:37:23;52.53;;;24.30;;
43504;SDS011;29098;48.184;16.298;2024-01-10T02:39:49;58.47;;;26.13;;
43504;SDS011;29098;48.184;16.298;2024-01-10T02:42:15;57.00;;;26.15;;
43504;SDS011;29098;48.184;16.298;2024-01-10T02:44:41;63.90;;;26.83;;
43504;SDS011;29098;48.184;16.298;2024-01-10T02:47:07;61.00;;;26.63;;
43504;SDS011;29098;48.184;16.298;2024-01-10T02:49:33;59.03;;;26.63;;
43504;SDS011;29098;48.184;16.298;2024-01-10T02:51:59;55.95;;;24.80;;
43504;SDS011;29098;48.184;16.298;2024-01-10T02:54:24;57.05;;;26.13;;
43504;SDS011;29098;48.184;16.298;2024-01-10T02:56:50;53.17;;;24.00;;
43504;SDS011;29098;48.184;16.298;2024-01-10T02:59:16;61.65;;;26.92;;
43504;SDS011;29098;48.184;16.298;2024-01-10T03:01:42;53.47;;;24.15;;
43504;SDS011;29098;48.184;16.298;2024-01-10T03:04:07;52.28;;;22.83;;
43504;SDS011;29098;48.184;16.298;2024-01-10T03:06:33;51.45;;;25.23;;
43504;SDS011;29098;48.184;16.298;2024-01-10T03:08:59;57.20;;;23.58;;
43504;SDS011;29098;48.184;16.298;2024-01-10T03:11:24;57.42;;;25.17;;
43504;SDS011;29098;48.184;16.298;2024-01-10T03:13:51;61.13;;;25.52;;
43504;SDS011;29098;48.184;16.298;2024-01-10T03:16:25;49.88;;;23.67;;
43504;SDS011;29098;48.184;16.298;2024-01-10T03:18:50;54.50;;;23.85;;
43504;SDS011;29098;48.184;16.298;2024-01-10T03:21:16;55.60;;;25.40;;
43504;SDS011;29098;48.184;16.298;2024-01-10T03:23:47;58.78;;;24.63;;
43504;SDS011;29098;48.184;16.298;2024-01-10T03:26:13;52.85;;;26.77;;
43504;SDS011;29098;48.184;16.298;2024-01-10T03:28:39;58.30;;;25.10;;
43504;SDS011;29098;48.184;16.298;2024-01-10T03:31:04;52.80;;;26.48;;
43504;SDS011;29098;48.184;16.298;2024-01-10T03:33:30;58.53;;;24.88;;
43504;SDS011;29098;48.184;16.298;2024-01-10T03:35:56;48.53;;;23.25;;
43504;SDS011;29098;48.184;16.298;2024-01-10T03:38:21;50.95;;;22.77;;
43504;SDS011;29098;48.184;16.298;2024-01-10T03:40:46;53.53;;;23.92;;
43504;SDS011;29098;48.184;16.298;2024-01-10T03:43:13;52.83;;;25.02;;
43504;SDS011;29098;48.184;16.298;2024-01-10T03:45:38;54.53;;;23.85;;
43504;SDS011;29098;48.184;16.298;2024-01-10T03:48:04;56.55;;;26.00;;
43504;SDS011;29098;48.184;16.298;2024-01-10T03:50:30;65.75;;;25.38;;
43504;SDS011;29098;48.184;16.298;2024-01-10T03:52:56;56.75;;;24.05;;
43504;SDS011;29098;48.184;16.298;2024-01-10T03:55:21;53.17;;;23.67;;
43504;SDS011;29098;48.184;16.298;2024-01-10T03:57:47;52.20;;;23.98;;
43504;SDS011;29098;48.184;16.298;2024-01-10T04:00:12;57.20;;;24.15;;
43504;SDS011;29098;48.184;16.298;2024-01-10T04:02:38;54.47;;;25.77;;
43504;SDS011;29098;48.184;16.298;2024-01-10T04:05:08;59.65;;;25.52;;
43504;SDS011;29098;48.184;16.298;2024-01-10T04:07:38;61.85;;;24.48;;
43504;SDS011;29098;48.184;16.298;2024-01-10T04:10:06;57.67;;;25.10;;
43504;SDS011;29098;48.184;16.298;2024-01-10T04:12:35;52.83;;;23.27;;
43504;SDS011;29098;48.184;16.298;2024-01-10T04:15:02;61.33;;;24.60;;
43504;SDS011;29098;48.184;16.298;2024-01-10T04:17:29;58.28;;;26.30;;
43504;SDS011;29098;48.184;16.298;2024-01-10T04:19:54;55.42;;;24.38;;
43504;SDS011;29098;48.184;16.298;2024-01-10T04:22:20;54.67;;;24.55;;
43504;SDS011;29098;48.184;16.298;2024-01-10T04:24:46;56.40;;;25.98;;
43504;SDS011;29098;48.184;16.298;2024-01-10T04:27:12;60.53;;;25.25;;
43504;SDS011;29098;48.184;16.298;2024-01-10T04:29:37;58.90;;;26.40;;
43504;SDS011;29098;48.184;16.298;2024-01-10T04:32:03;57.60;;;24.55;;
43504;SDS011;29098;48.184;16.298;2024-01-10T04:34:29;59.78;;;26.05;;
43504;SDS011;29098;48.184;16.298;2024-01-10T04:36:55;55.95;;;25.63;;
43504;SDS011;29098;48.184;16.298;2024-01-10T04:39:20;58.10;;;25.80;;
43504;SDS011;29098;48.184;16.298;2024-01-10T04:41:46;64.88;;;25.05;;
43504;SDS011;29098;48.184;16.298;2024-01-10T04:44:12;56.70;;;27.40;;
43504;SDS011;29098;48.184;16.298;2024-01-10T04:46:37;59.63;;;25.35;;
43504;SDS011;29098;48.184;16.298;2024-01-10T04:49:03;59.10;;;26.95;;
43504;SDS011;29098;48.184;16.298;2024-01-10T04:51:29;55.40;;;26.98;;
43504;SDS011;29098;48.184;16.298;2024-01-10T04:53:54;63.13;;;28.35;;
43504;SDS011;29098;48.184;16.298;2024-01-10T04:56:20;61.15;;;26.73;;
43504;SDS011;29098;48.184;16.298;2024-01-10T04:58:46;55.78;;;25.35;;
43504;SDS011;29098;48.184;16.298;2024-01-10T05:01:12;55.33;;;24.27;;
43504;SDS011;29098;48.184;16.298;2024-01-10T05:03:37;55.53;;;27.40;;
43504;SDS011;29098;48.184;16.298;2024-01-10T05:06:03;73.72;;;29.35;;
43504;SDS011;29098;48.184;16.298;2024-01-10T05:08:29;54.60;;;25.33;;
43504;SDS011;29098;48.184;16.298;2024-01-10T05:10:55;64.00;;;27.67;;
43504;SDS011;29098;48.184;16.298;2024-01-10T05:13:20;57.78;;;27.15;;
43504;SDS011;29098;48.184;16.298;2024-01-10T05:15:46;59.05;;;25.30;;
43504;SDS011;29098;48.184;16.298;2024-01-10T05:18:12;55.58;;;27.48;;
43504;SDS011;29098;48.184;16.298;2024-01-10T05:20:37;56.92;;;28.65;;
43504;SDS011;29098;48.184;16.298;2024-01-10T05:23:03;55.45;;;25.35;;
43504;SDS011;29098;48.184;16.298;2024-01-10T05:25:29;55.10;;;26.77;;
43504;SDS011;29098;48.184;16.298;2024-01-10T05:27:55;52.55;;;25.80;;
43504;SDS011;29098;48.184;16.298;2024-01-10T05:30:20;52.30;;;24.73;;
43504;SDS011;29098;48.184;16.298;2024-01-10T05:32:46;61.45;;;28.38;;
43504;SDS011;29098;48.184;16.298;2024-01-10T05:35:11;55.05;;;27.05;;
43504;SDS011;29098;48.184;16.298;2024-01-10T05:37:37;62.60;;;26.75;;
43504;SDS011;29098;48.184;16.298;2024-01-10T05:40:03;66.55;;;26.55;;
43504;SDS011;29098;48.184;16.298;2024-01-10T05:42:32;65.20;;;27.33;;
43504;SDS011;29098;48.184;16.298;2024-01-10T05:44:58;56.40;;;25.73;;
43504;SDS011;29098;48.184;16.298;2024-01-10T05:47:25;58.00;;;27.83;;
43504;SDS011;29098;48.184;16.298;2024-01-10T05:49:51;64.60;;;26.20;;
43504;SDS011;29098;48.184;16.298;2024-01-10T05:52:18;58.63;;;25.52;;
43504;SDS011;29098;48.184;16.298;2024-01-10T05:54:44;63.25;;;25.30;;
43504;SDS011;29098;48.184;16.298;2024-01-10T05:57:10;69.15;;;25.63;;
43504;SDS011;29098;48.184;16.298;2024-01-10T05:59:35;60.95;;;28.55;;
43504;SDS011;29098;48.184;16.298;2024-01-10T06:02:02;57.65;;;26.48;;
43504;SDS011;29098;48.184;16.298;2024-01-10T06:04:28;68.95;;;28.15;;
43504;SDS011;29098;48.184;16.298;2024-01-10T06:06:59;52.22;;;27.40;;
43504;SDS011;29098;48.184;16.298;2024-01-10T06:09:28;56.95;;;25.50;;
43504;SDS011;29098;48.184;16.298;2024-01-10T06:11:57;54.38;;;25.65;;
43504;SDS011;29098;48.184;16.298;2024-01-10T06:14:22;62.58;;;28.70;;
43504;SDS011;29098;48.184;16.298;2024-01-10T06:16:48;60.47;;;26.95;;
43504;SDS011;29098;48.184;16.298;2024-01-10T06:19:13;66.90;;;28.98;;
43504;SDS011;29098;48.184;16.298;2024-01-10T06:21:39;66.35;;;28.42;;
43504;SDS011;29098;48.184;16.298;2024-01-10T06:24:04;62.75;;;28.08;;
43504;SDS011;29098;48.184;16.298;2024-01-10T06:26:30;66.10;;;28.05;;
43504;SDS011;29098;48.184;16.298;2024-01-10T06:28:56;60.22;;;28.60;;
43504;SDS011;29098;48.184;16.298;2024-01-10T06:31:22;74.20;;;29.35;;
43504;SDS011;29098;48.184;16.298;2024-01-10T06:33:48;68.35;;;29.55;;
43504;SDS011;29098;48.184;16.298;2024-01-10T06:36:14;67.28;;;29.60;;
43504;SDS011;29098;48.184;16.298;2024-01-10T06:38:40;75.22;;;29.48;;
43504;SDS011;29098;48.184;16.298;2024-01-10T06:41:09;62.78;;;27.17;;
43504;SDS011;29098;48.184;16.298;2024-01-10T06:43:38;70.05;;;29.40;;
43504;SDS011;29098;48.184;16.298;2024-01-10T06:46:05;72.65;;;29.98;;
43504;SDS011;29098;48.184;16.298;2024-01-10T06:48:31;52.88;;;27.65;;
43504;SDS011;29098;48.184;16.298;2024-01-10T06:50:57;63.83;;;28.75;;
43504;SDS011;29098;48.184;16.298;2024-01-10T06:53:24;66.60;;;30.38;;
43504;SDS011;29098;48.184;16.298;2024-01-10T06:55:49;73.65;;;29.08;;
43504;SDS011;29098;48.184;16.298;2024-01-10T06:58:15;63.05;;;26.92;;
43504;SDS011;29098;48.184;16.298;2024-01-10T07:00:41;67.75;;;28.77;;
43504;SDS011;29098;48.184;16.298;2024-01-10T07:03:07;62.10;;;29.35;;
43504;SDS011;29098;48.184;16.298;2024-01-10T07:05:32;66.57;;;30.60;;
43504;SDS011;29098;48.184;16.298;2024-01-10T07:07:58;66.72;;;28.23;;
43504;SDS011;29098;48.184;16.298;2024-01-10T07:10:28;62.50;;;29.13;;
43504;SDS011;29098;48.184;16.298;2024-01-10T07:12:57;65.93;;;27.67;;
43504;SDS011;29098;48.184;16.298;2024-01-10T07:15:22;69.43;;;28.70;;
43504;SDS011;29098;48.184;16.298;2024-01-10T07:17:48;68.65;;;28.05;;
43504;SDS011;29098;48.184;16.298;2024-01-10T07:20:14;71.13;;;29.75;;
43504;SDS011;29098;48.184;16.298;2024-01-10T07:22:39;64.90;;;29.63;;
43504;SDS011;29098;48.184;16.298;2024-01-10T07:25:09;58.45;;;28.60;;
43504;SDS011;29098;48.184;16.298;2024-01-10T07:27:35;58.10;;;27.75;;
43504;SDS011;29098;48.184;16.298;2024-01-10T07:30:05;63.20;;;27.83;;
43504;SDS011;29098;48.184;16.298;2024-01-10T07:32:36;75.72;;;31.55;;
43504;SDS011;29098;48.184;16.298;2024-01-10T07:35:02;68.90;;;30.17;;
43504;SDS011;29098;48.184;16.298;2024-01-10T07:37:27;70.78;;;31.70;;
43504;SDS011;29098;48.184;16.298;2024-01-10T07:39:53;65.22;;;29.92;;
43504;SDS011;29098;48.184;16.298;2024-01-10T07:42:19;73.32;;;34.42;;
43504;SDS011;29098;48.184;16.298;2024-01-10T07:44:44;75.63;;;34.38;;
43504;SDS011;29098;48.184;16.298;2024-01-10T07:47:10;71.90;;;31.67;;
43504;SDS011;29098;48.184;16.298;2024-01-10T07:49:35;87.50;;;32.78;;
43504;SDS011;29098;48.184;16.298;2024-01-10T07:52:02;69.05;;;33.08;;
43504;SDS011;29098;48.184;16.298;2024-01-10T07:54:29;71.68;;;32.22;;
43504;SDS011;29098;48.184;16.298;2024-01-10T07:56:57;79.25;;;32.58;;
43504;SDS011;29098;48.184;16.298;2024-01-10T07:59:23;85.47;;;34.67;;
43504;SDS011;29098;48.184;16.298;2024-01-10T08:01:56;78.15;;;33.50;;
43504;SDS011;29098;48.184;16.298;2024-01-10T08:04:23;76.03;;;35.03;;
43504;SDS011;29098;48.184;16.298;2024-01-10T08:06:50;79.10;;;33.70;;
43504;SDS011;29098;48.184;16.298;2024-01-10T08:09:15;83.13;;;36.95;;
43504;SDS011;29098;48.184;16.298;2024-01-10T08:11:41;76.60;;;34.55;;
43504;SDS011;29098;48.184;16.298;2024-01-10T08:14:06;75.88;;;34.67;;
43504;SDS011;29098;48.184;16.298;2024-01-10T08:16:32;70.88;;;34.10;;
43504;SDS011;29098;48.184;16.298;2024-01-10T08:18:57;74.25;;;36.50;;
43504;SDS011;29098;48.184;16.298;2024-01-10T08:21:24;81.90;;;37.15;;
43504;SDS011;29098;48.184;16.298;2024-01-10T08:23:50;79.65;;;35.20;;
43504;SDS011;29098;48.184;16.298;2024-01-10T08:26:15;78.55;;;35.17;;
43504;SDS011;29098;48.184;16.298;2024-01-10T08:28:41;77.05;;;34.88;;
43504;SDS011;29098;48.184;16.298;2024-01-10T08:31:07;79.22;;;35.97;;
43504;SDS011;29098;48.184;16.298;2024-01-10T08:33:33;74.10;;;35.75;;
43504;SDS011;29098;48.184;16.298;2024-01-10T08:35:58;81.32;;;38.70;;
43504;SDS011;29098;48.184;16.298;2024-01-10T08:38:24;72.05;;;35.92;;
43504;SDS011;29098;48.184;16.298;2024-01-10T08:40:49;69.97;;;33.60;;
43504;SDS011;29098;48.184;16.298;2024-01-10T08:43:15;77.80;;;32.55;;
43504;SDS011;29098;48.184;16.298;2024-01-10T08:45:40;67.97;;;33.45;;
43504;SDS011;29098;48.184;16.298;2024-01-10T08:48:06;79.53;;;35.67;;
43504;SDS011;29098;48.184;16.298;2024-01-10T08:50:35;83.25;;;36.42;;
43504;SDS011;29098;48.184;16.298;2024-01-10T08:53:01;72.38;;;32.42;;
43504;SDS011;29098;48.184;16.298;2024-01-10T08:55:30;78.20;;;37.80;;
43504;SDS011;29098;48.184;16.298;2024-01-10T08:57:56;77.57;;;37.00;;
43504;SDS011;29098;48.184;16.298;2024-01-10T09:00:22;80.30;;;36.72;;
43504;SDS011;29098;48.184;16.298;2024-01-10T09:02:49;80.45;;;36.38;;
43504;SDS011;29098;48.184;16.298;2024-01-10T09:05:15;75.72;;;37.05;;
43504;SDS011;29098;48.184;16.298;2024-01-10T09:07:41;77.75;;;33.78;;
43504;SDS011;29098;48.184;16.298;2024-01-10T09:10:07;86.45;;;36.83;;
43504;SDS011;29098;48.184;16.298;2024-01-10T09:12:33;76.93;;;33.83;;
43504;SDS011;29098;48.184;16.298;2024-01-10T09:14:59;79.20;;;34.30;;
43504;SDS011;29098;48.184;16.298;2024-01-10T09:17:25;78.75;;;34.50;;
43504;SDS011;29098;48.184;16.298;2024-01-10T09:19:52;73.18;;;36.15;;
43504;SDS011;29098;48.184;16.298;2024-01-10T09:22:18;70.63;;;35.47;;
43504;SDS011;29098;48.184;16.298;2024-01-10T09:24:43;74.03;;;35.17;;
43504;SDS011;29098;48.184;16.298;2024-01-10T09:27:10;77.57;;;36.33;;
43504;SDS011;29098;48.184;16.298;2024-01-10T09:29:35;77.68;;;34.78;;
43504;SDS011;29098;48.184;16.298;2024-01-10T09:32:01;70.95;;;33.47;;
43504;SDS011;29098;48.184;16.298;2024-01-10T09:34:26;59.05;;;31.17;;
43504;SDS011;29098;48.184;16.298;2024-01-10T09:36:52;73.88;;;33.25;;
43504;SDS011;29098;48.184;16.298;2024-01-10T09:39:17;63.30;;;31.55;;
43504;SDS011;29098;48.184;16.298;2024-01-10T09:41:49;55.83;;;29.10;;
43504;SDS011;29098;48.184;16.298;2024-01-10T09:44:16;73.70;;;33.42;;
43504;SDS011;29098;48.184;16.298;2024-01-10T09:46:46;63.00;;;29.23;;
43504;SDS011;29098;48.184;16.298;2024-01-10T09:49:16;77.85;;;33.67;;
43504;SDS011;29098;48.184;16.298;2024-01-10T09:51:41;65.93;;;29.05;;
43504;SDS011;29098;48.184;16.298;2024-01-10T09:54:07;69.88;;;30.60;;
43504;SDS011;29098;48.184;16.298;2024-01-10T09:56:33;56.15;;;28.13;;
43504;SDS011;29098;48.184;16.298;2024-01-10T09:58:58;64.82;;;30.13;;
43504;SDS011;29098;48.184;16.298;2024-01-10T10:01:30;75.28;;;30.45;;
43504;SDS011;29098;48.184;16.298;2024-01-10T10:03:55;75.32;;;31.45;;
43504;SDS011;29098;48.184;16.298;2024-01-10T10:06:22;62.70;;;31.20;;
43504;SDS011;29098;48.184;16.298;2024-01-10T10:08:48;67.57;;;31.02;;
43504;SDS011;29098;48.184;16.298;2024-01-10T10:11:13;67.40;;;29.58;;
43504;SDS011;29098;48.184;16.298;2024-01-10T10:13:39;65.85;;;30.75;;
43504;SDS011;29098;48.184;16.298;2024-01-10T10:16:07;66.93;;;29.83;;
43504;SDS011;29098;48.184;16.298;2024-01-10T10:18:37;68.10;;;29.13;;
43504;SDS011;29098;48.184;16.298;2024-01-10T10:21:14;59.30;;;27.80;;
43504;SDS011;29098;48.184;16.298;2024-01-10T10:23:41;63.50;;;31.05;;
43504;SDS011;29098;48.184;16.298;2024-01-10T10:26:14;60.00;;;28.48;;
43504;SDS011;29098;48.184;16.298;2024-01-10T10:28:47;65.25;;;30.35;;
43504;SDS011;29098;48.184;16.298;2024-01-10T10:31:14;66.10;;;31.80;;
43504;SDS011;29098;48.184;16.298;2024-01-10T10:33:41;74.00;;;30.98;;
43504;SDS011;29098;48.184;16.298;2024-01-10T10:36:08;66.90;;;32.15;;
43504;SDS011;29098;48.184;16.298;2024-01-10T10:38:34;67.47;;;29.25;;
43504;SDS011;29098;48.184;16.298;2024-01-10T10:41:00;56.70;;;31.38;;
43504;SDS011;29098;48.184;16.298;2024-01-10T10:43:25;63.92;;;31.13;;
43504;SDS011;29098;48.184;16.298;2024-01-10T10:45:51;57.05;;;28.48;;
43504;SDS011;29098;48.184;16.298;2024-01-10T10:48:18;62.70;;;29.75;;
43504;SDS011;29098;48.184;16.298;2024-01-10T10:50:50;61.25;;;28.15;;
43504;SDS011;29098;48.184;16.298;2024-01-10T10:53:24;68.57;;;31.00;;
43504;SDS011;29098;48.184;16.298;2024-01-10T10:55:53;56.22;;;27.65;;
43504;SDS011;29098;48.184;16.298;2024-01-10T10:58:20;61.70;;;29.38;;
43504;SDS011;29098;48.184;16.298;2024-01-10T11:00:46;56.88;;;27.60;;
43504;SDS011;29098;48.184;16.298;2024-01-10T11:03:13;59.33;;;30.35;;
43504;SDS011;29098;48.184;16.298;2024-01-10T11:05:40;62.80;;;28.60;;
43504;SDS011;29098;48.184;16.298;2024-01-10T11:08:07;60.70;;;28.00;;
43504;SDS011;29098;48.184;16.298;2024-01-10T11:10:37;59.40;;;27.60;;
43504;SDS011;29098;48.184;16.298;2024-01-10T11:24:23;54.08;;;27.25;;
43504;SDS011;29098;48.184;16.298;2024-01-10T11:26:49;62.17;;;28.95;;
43504;SDS011;29098;48.184;16.298;2024-01-10T11:29:15;56.58;;;30.10;;
43504;SDS011;29098;48.184;16.298;2024-01-10T11:31:41;50.75;;;26.13;;
43504;SDS011;29098;48.184;16.298;2024-01-10T11:34:06;59.65;;;26.73;;
43504;SDS011;29098;48.184;16.298;2024-01-10T11:36:33;52.10;;;27.02;;
43504;SDS011;29098;48.184;16.298;2024-01-10T11:38:59;52.65;;;24.40;;
43504;SDS011;29098;48.184;16.298;2024-01-10T11:41:32;53.33;;;27.13;;
43504;SDS011;29098;48.184;16.298;2024-01-10T11:46:41;46.42;;;24.70;;
43504;SDS011;29098;48.184;16.298;2024-01-10T11:49:10;53.00;;;27.00;;
43504;SDS011;29098;48.184;16.298;2024-01-10T11:51:41;44.90;;;24.30;;
43504;SDS011;29098;48.184;16.298;2024-01-10T11:54:07;50.28;;;23.90;;
43504;SDS011;29098;48.184;16.298;2024-01-10T11:56:40;39.65;;;20.48;;
43504;SDS011;29098;48.184;16.298;2024-01-10T11:59:07;39.47;;;19.05;;
43504;SDS011;29098;48.184;16.298;2024-01-10T12:01:38;28.60;;;15.77;;
43504;SDS011;29098;48.184;16.298;2024-01-10T12:04:04;30.00;;;15.15;;
43504;SDS011;29098;48.184;16.298;2024-01-10T12:06:31;26.52;;;14.40;;
43504;SDS011;29098;48.184;16.298;2024-01-10T12:08:57;30.70;;;15.95;;
43504;SDS011;29098;48.184;16.298;2024-01-10T12:11:24;34.53;;;15.98;;
43504;SDS011;29098;48.184;16.298;2024-01-10T12:13:50;26.85;;;14.55;;
43504;SDS011;29098;48.184;16.298;2024-01-10T12:16:18;27.98;;;15.70;;
43504;SDS011;29098;48.184;16.298;2024-01-10T12:18:44;29.35;;;16.52;;
43504;SDS011;29098;48.184;16.298;2024-01-10T12:21:09;28.25;;;14.57;;
43504;SDS011;29098;48.184;16.298;2024-01-10T12:23:38;26.80;;;14.65;;
43504;SDS011;29098;48.184;16.298;2024-01-10T12:26:10;34.15;;;18.10;;
43504;SDS011;29098;48.184;16.298;2024-01-10T12:28:39;33.40;;;16.95;;
43504;SDS011;29098;48.184;16.298;2024-01-10T12:31:05;32.17;;;18.65;;
43504;SDS011;29098;48.184;16.298;2024-01-10T12:33:37;29.83;;;15.70;;
43504;SDS011;29098;48.184;16.298;2024-01-10T12:36:06;30.55;;;18.48;;
43504;SDS011;29098;48.184;16.298;2024-01-10T12:38:33;36.00;;;17.55;;
43504;SDS011;29098;48.184;16.298;2024-01-10T12:41:02;34.90;;;18.80;;
43504;SDS011;29098;48.184;16.298;2024-01-10T12:43:29;36.70;;;19.60;;
43504;SDS011;29098;48.184;16.298;2024-01-10T12:46:07;33.70;;;18.65;;
43504;SDS011;29098;48.184;16.298;2024-01-10T12:48:38;30.60;;;16.90;;
43504;SDS011;29098;48.184;16.298;2024-01-10T12:51:08;32.23;;;17.63;;
43504;SDS011;29098;48.184;16.298;2024-01-10T12:53:34;31.15;;;17.67;;
43504;SDS011;29098;48.184;16.298;2024-01-10T12:56:01;38.35;;;19.08;;
43504;SDS011;29098;48.184;16.298;2024-01-10T12:58:28;32.42;;;17.88;;
43504;SDS011;29098;48.184;16.298;2024-01-10T13:00:57;38.42;;;18.70;;
43504;SDS011;29098;48.184;16.298;2024-01-10T13:03:22;36.33;;;19.17;;
43504;SDS011;29098;48.184;16.298;2024-01-10T13:05:51;41.05;;;19.42;;
43504;SDS011;29098;48.184;16.298;2024-01-10T13:08:19;33.58;;;19.02;;
43504;SDS011;29098;48.184;16.298;2024-01-10T13:10:45;42.10;;;20.85;;
43504;SDS011;29098;48.184;16.298;2024-01-10T13:13:12;40.15;;;22.95;;
43504;SDS011;29098;48.184;16.298;2024-01-10T13:15:38;42.90;;;23.48;;
43504;SDS011;29098;48.184;16.298;2024-01-10T13:18:04;40.35;;;22.35;;
43504;SDS011;29098;48.184;16.298;2024-01-10T13:20:29;40.42;;;20.95;;
43504;SDS011;29098;48.184;16.298;2024-01-10T13:22:55;45.58;;;22.83;;
43504;SDS011;29098;48.184;16.298;2024-01-10T13:25:20;37.88;;;21.27;;
43504;SDS011;29098;48.184;16.298;2024-01-10T13:27:49;40.95;;;22.58;;
43504;SDS011;29098;48.184;16.298;2024-01-10T13:30:16;47.17;;;23.02;;
43504;SDS011;29098;48.184;16.298;2024-01-10T13:32:42;42.15;;;21.40;;
43504;SDS011;29098;48.184;16.298;2024-01-10T13:35:09;40.60;;;21.33;;
43504;SDS011;29098;48.184;16.298;2024-01-10T13:37:34;35.55;;;19.77;;
43504;SDS011;29098;48.184;16.298;2024-01-10T13:40:00;41.00;;;21.85;;
43504;SDS011;29098;48.184;16.298;2024-01-10T13:42:30;37.78;;;20.38;;
43504;SDS011;29098;48.184;16.298;2024-01-10T13:44:56;38.38;;;20.00;;
43504;SDS011;29098;48.184;16.298;2024-01-10T13:47:21;47.58;;;17.65;;
43504;SDS011;29098;48.184;16.298;2024-01-10T13:49:47;36.53;;;19.60;;
43504;SDS011;29098;48.184;16.298;2024-01-10T13:52:13;36.42;;;19.60;;
43504;SDS011;29098;48.184;16.298;2024-01-10T13:54:40;36.38;;;20.15;;
43504;SDS011;29098;48.184;16.298;2024-01-10T13:57:07;34.00;;;20.25;;
43504;SDS011;29098;48.184;16.298;2024-01-10T13:59:33;36.80;;;20.75;;
43504;SDS011;29098;48.184;16.298;2024-01-10T14:01:58;40.08;;;19.90;;
43504;SDS011;29098;48.184;16.298;2024-01-10T14:04:24;31.38;;;18.63;;
43504;SDS011;29098;48.184;16.298;2024-01-10T14:06:50;35.17;;;17.38;;
43504;SDS011;29098;48.184;16.298;2024-01-10T14:09:15;29.17;;;18.60;;
43504;SDS011;29098;48.184;16.298;2024-01-10T14:11:43;32.78;;;17.08;;
43504;SDS011;29098;48.184;16.298;2024-01-10T14:14:13;31.38;;;17.13;;
43504;SDS011;29098;48.184;16.298;2024-01-10T14:16:39;31.45;;;17.23;;
43504;SDS011;29098;48.184;16.298;2024-01-10T14:19:06;31.88;;;16.10;;